createdAt,value
2023-04-12T15:22:23.943Z,43.86
2023-04-12T15:24:34.948Z,42.87
2023-04-12T15:25:34.908Z,41.98
2023-04-12T15:26:34.951Z,42.93
2023-04-12T15:27:34.920Z,43.30
2023-04-12T15:28:34.910Z,42.97
2023-04-12T15:29:34.924Z,42.17
2023-04-12T15:30:34.937Z,42.15
2023-04-12T15:31:34.904Z,43.07
2023-04-12T15:32:36.537Z,43.53
2023-04-12T15:33:34.861Z,43.60
2023-04-12T15:34:35.311Z,44.49
2023-04-12T15:35:34.902Z,44.51
2023-04-12T15:36:34.872Z,43.68
2023-04-12T15:37:34.996Z,44.85
2023-04-12T15:38:34.940Z,44.12
2023-04-12T15:39:35.026Z,43.49
2023-04-12T15:40:35.062Z,43.89
2023-04-12T15:41:35.055Z,43.21
2023-04-12T15:42:35.088Z,42.96
2023-04-12T15:43:35.073Z,43.31
2023-04-12T15:44:35.141Z,42.59
2023-04-12T15:45:35.180Z,43.09
2023-04-12T15:46:35.180Z,43.13
2023-04-12T15:47:35.180Z,43.31
2023-04-12T15:48:35.226Z,44.35
2023-04-12T15:49:35.928Z,45.73
2023-04-12T15:50:35.216Z,45.90
2023-04-12T15:51:35.276Z,46.17
2023-04-12T15:52:35.335Z,46.23
2023-04-12T15:53:35.342Z,46.14
2023-04-12T15:54:35.430Z,45.94
2023-04-12T15:55:35.420Z,45.47
2023-04-12T15:56:35.564Z,45.81
2023-04-12T15:57:35.514Z,45.89
2023-04-12T15:58:35.578Z,45.28
2023-04-12T15:59:35.578Z,44.87
2023-04-12T16:00:35.630Z,45.67
2023-04-12T16:01:35.815Z,46.01
2023-04-12T16:02:35.773Z,46.01
2023-04-12T16:03:35.762Z,46.74
2023-04-12T16:04:35.787Z,46.48
2023-04-12T16:05:35.809Z,46.26
2023-04-12T16:06:35.884Z,45.40
2023-04-12T16:07:35.866Z,45.76
2023-04-12T16:08:35.916Z,45.18
2023-04-12T16:09:35.970Z,44.99
2023-04-12T16:10:36.022Z,45.44
2023-04-12T16:11:36.068Z,45.36
2023-04-12T16:12:36.092Z,45.03
2023-04-12T16:13:36.147Z,44.85
2023-04-12T16:14:36.137Z,44.76
2023-04-12T16:15:36.229Z,44.17
2023-04-12T16:16:36.241Z,43.73
2023-04-12T16:17:36.227Z,43.86
2023-04-12T16:18:36.276Z,43.51
2023-04-12T16:19:36.269Z,43.93
2023-04-12T16:20:36.301Z,43.62
2023-04-12T16:21:36.341Z,43.19
2023-04-12T16:22:36.357Z,44.28
2023-04-12T16:23:36.361Z,44.40
2023-04-12T16:24:36.435Z,44.18
2023-04-12T16:25:36.563Z,43.91
2023-04-12T16:26:36.483Z,43.45
2023-04-12T16:27:36.512Z,42.84
2023-04-12T16:28:36.556Z,42.88
2023-04-12T16:29:36.614Z,43.72
2023-04-12T16:30:36.638Z,44.53
2023-04-12T16:31:36.701Z,44.39
2023-04-12T16:32:36.729Z,44.38
2023-04-12T16:33:36.732Z,44.22
2023-04-12T16:34:36.798Z,44.06
2023-04-12T16:35:36.810Z,45.22
2023-04-12T16:36:36.817Z,45.10
2023-04-12T16:37:36.819Z,45.31
2023-04-12T16:38:36.869Z,45.22
2023-04-12T16:39:36.883Z,44.74
2023-04-12T16:40:36.996Z,44.72
2023-04-12T16:41:36.943Z,45.39
2023-04-12T16:42:36.996Z,45.89
2023-04-12T16:43:36.994Z,45.94
2023-04-12T16:44:37.031Z,45.97
2023-04-12T16:45:37.058Z,45.12
2023-04-12T16:46:37.113Z,44.49
2023-04-12T16:47:37.231Z,44.61
2023-04-12T16:48:37.134Z,45.52
2023-04-12T16:49:37.209Z,46.14
2023-04-12T16:50:37.209Z,46.45
2023-04-12T16:51:37.588Z,46.89
2023-04-12T16:52:37.333Z,47.15
2023-04-12T16:53:37.369Z,46.91
2023-04-12T16:54:37.406Z,47.23
2023-04-12T16:55:37.412Z,47.69
2023-04-12T16:56:37.452Z,48.07
2023-04-12T16:57:37.468Z,47.44
2023-04-12T16:58:37.511Z,47.98
2023-04-12T16:59:37.568Z,48.40
2023-04-12T17:00:37.568Z,47.10
2023-04-12T17:01:37.598Z,47.42
2023-04-12T17:02:37.776Z,46.87
2023-04-12T17:03:37.656Z,47.29
2023-04-12T17:04:37.732Z,47.71
2023-04-12T17:05:37.696Z,47.58
2023-04-12T17:07:37.782Z,48.22
2023-04-12T17:08:37.780Z,47.78
2023-04-12T17:09:37.826Z,47.18
2023-04-12T17:10:37.852Z,46.85
2023-04-12T17:11:37.906Z,46.81
2023-04-12T17:12:37.886Z,46.86
2023-04-12T17:13:37.942Z,47.02
2023-04-12T17:14:37.984Z,46.76
2023-04-12T17:15:37.969Z,46.58
2023-04-12T17:16:38.196Z,47.37
2023-04-12T17:17:38.098Z,46.73
2023-04-12T17:18:38.063Z,46.72
2023-04-12T17:19:38.095Z,46.80
2023-04-12T17:20:38.110Z,47.69
2023-04-12T17:21:38.157Z,47.33
2023-04-12T17:22:38.210Z,48.16
2023-04-12T17:23:38.258Z,47.67
2023-04-12T17:24:39.156Z,47.76
2023-04-12T17:25:38.288Z,47.83
2023-04-12T17:26:38.313Z,47.59
2023-04-12T17:27:38.350Z,47.72
2023-04-12T17:28:38.382Z,47.67
2023-04-12T17:29:38.477Z,48.01
2023-04-12T17:30:38.451Z,48.74
2023-04-12T17:31:38.432Z,48.89
2023-04-12T17:32:38.479Z,49.72
2023-04-12T17:33:39.038Z,50.42
2023-04-12T17:34:38.566Z,49.62
2023-04-12T17:35:38.500Z,49.10
2023-04-12T17:36:38.563Z,49.78
2023-04-12T17:37:38.586Z,49.32
2023-04-12T17:38:38.586Z,49.52
2023-04-12T17:39:38.643Z,49.85
2023-04-12T17:40:38.650Z,50.06
2023-04-12T17:41:39.073Z,49.66
2023-04-12T17:42:38.689Z,48.88
2023-04-12T17:43:38.740Z,48.96
2023-04-12T17:44:38.724Z,48.81
2023-04-12T17:45:38.758Z,49.24
2023-04-12T17:46:38.781Z,49.69
2023-04-12T17:47:38.853Z,50.51
2023-04-12T17:48:38.847Z,50.11
2023-04-12T17:49:38.916Z,50.23
2023-04-12T17:50:38.909Z,49.75
2023-04-12T17:51:38.910Z,49.46
2023-04-12T17:52:39.042Z,49.33
2023-04-12T17:53:38.996Z,49.15
2023-04-12T17:54:38.999Z,48.80
2023-04-12T17:55:39.022Z,48.58
2023-04-12T17:56:39.050Z,48.41
2023-04-12T17:57:39.122Z,47.99
2023-04-12T17:58:39.089Z,48.52
2023-04-12T17:59:39.142Z,48.16
2023-04-12T18:00:39.195Z,48.37
2023-04-12T18:01:39.293Z,49.03
2023-04-12T18:02:39.319Z,49.20
2023-04-12T18:03:39.515Z,49.10
2023-04-12T18:04:39.505Z,49.72
2023-04-12T18:05:39.392Z,49.66
2023-04-12T18:06:39.394Z,50.14
2023-04-12T18:07:39.463Z,49.98
2023-04-12T18:08:39.516Z,50.09
2023-04-12T18:09:39.555Z,49.80
2023-04-12T18:10:39.555Z,50.43
2023-04-12T18:11:39.585Z,49.91
2023-04-12T18:12:39.630Z,50.12
2023-04-12T18:13:39.669Z,50.63
2023-04-12T18:14:39.694Z,50.89
2023-04-12T18:15:39.732Z,51.09
2023-04-12T18:16:39.739Z,51.21
2023-04-12T18:17:39.863Z,51.53
2023-04-12T18:18:39.820Z,51.75
2023-04-12T18:19:39.868Z,51.49
2023-04-12T18:20:39.938Z,51.91
2023-04-12T18:21:39.928Z,51.70
2023-04-12T18:22:39.995Z,52.67
2023-04-12T18:23:40.013Z,52.42
2023-04-12T18:24:40.072Z,52.22
2023-04-12T18:25:40.072Z,51.79
2023-04-12T18:26:40.146Z,51.31
2023-04-12T18:27:40.178Z,51.04
2023-04-12T18:28:40.998Z,50.54
2023-04-12T18:29:40.284Z,49.93
2023-04-12T18:30:40.256Z,49.61
2023-04-12T18:31:40.296Z,49.53
2023-04-12T18:32:40.329Z,49.67
2023-04-12T18:33:40.298Z,50.91
2023-04-12T18:34:40.329Z,50.33
2023-04-12T18:35:40.325Z,49.78
2023-04-12T18:36:40.387Z,50.04
2023-04-12T18:37:40.446Z,49.53
2023-04-12T18:38:40.454Z,50.21
2023-04-12T18:39:40.543Z,50.96
2023-04-12T18:40:40.528Z,51.76
2023-04-12T18:41:40.562Z,51.65
2023-04-12T18:42:40.572Z,51.51
2023-04-12T18:43:40.588Z,51.30
2023-04-12T18:44:40.625Z,51.04
2023-04-12T18:45:40.602Z,50.81
2023-04-12T18:46:40.679Z,50.39
2023-04-12T18:47:40.685Z,50.41
2023-04-12T18:48:40.673Z,51.49
2023-04-12T18:49:40.714Z,52.22
2023-04-12T18:50:40.727Z,51.49
2023-04-12T18:51:40.728Z,51.42
2023-04-12T18:52:40.780Z,52.60
2023-04-12T18:53:40.869Z,52.83
2023-04-12T18:54:40.859Z,52.72
2023-04-12T18:55:40.882Z,53.03
2023-04-12T18:56:40.925Z,53.13
2023-04-12T18:57:40.928Z,53.57
2023-04-12T18:58:54.148Z,53.17
2023-04-12T18:59:42.023Z,53.08
2023-04-12T19:00:40.972Z,52.96
2023-04-12T19:01:41.039Z,52.80
2023-04-12T19:02:41.143Z,53.09
2023-04-12T19:03:40.979Z,53.07
2023-04-12T19:04:40.946Z,53.07
2023-04-12T19:05:40.944Z,52.67
2023-04-12T19:06:40.945Z,52.21
2023-04-12T19:07:40.904Z,51.86
2023-04-12T19:08:42.498Z,51.98
2023-04-12T19:09:40.877Z,51.70
2023-04-12T19:10:40.899Z,51.21
2023-04-12T19:11:40.876Z,51.10
2023-04-12T19:12:40.896Z,50.93
2023-04-12T19:13:40.897Z,50.99
2023-04-12T19:14:40.898Z,51.44
2023-04-12T19:15:40.922Z,52.19
2023-04-12T19:16:40.999Z,52.44
2023-04-12T19:17:40.953Z,53.34
2023-04-12T19:18:40.973Z,53.05
2023-04-12T19:19:40.971Z,53.08
2023-04-12T19:20:41.068Z,52.89
2023-04-12T19:21:41.039Z,53.30
2023-04-12T19:22:41.061Z,53.93
2023-04-12T19:23:41.107Z,53.23
2023-04-12T19:24:41.163Z,52.99
2023-04-12T19:25:41.157Z,53.45
2023-04-12T19:26:41.176Z,54.25
2023-04-12T19:27:41.281Z,54.97
2023-04-12T19:28:41.279Z,54.54
2023-04-12T19:29:41.346Z,53.91
2023-04-12T19:30:41.417Z,53.95
2023-04-12T19:31:41.407Z,54.40
2023-04-12T19:32:41.468Z,54.32
2023-04-12T19:33:41.475Z,53.93
2023-04-12T19:34:41.531Z,53.37
2023-04-12T19:35:41.603Z,53.12
2023-04-12T19:36:41.589Z,53.10
2023-04-12T19:37:41.647Z,53.04
2023-04-12T19:38:41.690Z,53.28
2023-04-12T19:39:41.620Z,53.40
2023-04-12T19:40:41.719Z,53.31
2023-04-12T19:41:41.705Z,53.28
2023-04-12T19:42:41.698Z,53.15
2023-04-12T19:43:41.719Z,53.23
2023-04-12T19:44:41.756Z,53.50
2023-04-12T19:45:41.851Z,54.06
2023-04-12T19:46:41.841Z,53.87
2023-04-12T19:47:41.900Z,53.85
2023-04-12T19:48:41.938Z,54.64
2023-04-12T19:49:41.941Z,54.83
2023-04-12T19:50:41.979Z,54.96
2023-04-12T19:51:42.037Z,55.00
2023-04-12T19:52:42.063Z,55.09
2023-04-12T19:53:42.227Z,55.49
2023-04-12T19:54:42.094Z,55.53
2023-04-12T19:55:42.143Z,54.84
2023-04-12T19:56:42.144Z,54.85
2023-04-12T19:57:42.194Z,54.64
2023-04-12T19:58:42.212Z,54.06
2023-04-12T19:59:42.224Z,54.43
2023-04-12T20:00:42.275Z,53.53
2023-04-12T20:01:42.351Z,53.99
2023-04-12T20:02:42.368Z,54.31
2023-04-12T20:03:42.428Z,53.86
2023-04-12T20:04:42.423Z,55.09
2023-04-12T20:05:42.449Z,54.93
2023-04-12T20:06:42.482Z,54.57
2023-04-12T20:07:42.481Z,54.93
2023-04-12T20:08:42.502Z,55.05
2023-04-12T20:09:42.499Z,55.02
2023-04-12T20:10:42.591Z,54.61
2023-04-12T20:11:43.027Z,54.71
2023-04-12T20:12:42.619Z,55.22
2023-04-12T20:13:42.682Z,54.85
2023-04-12T20:14:42.684Z,55.12
2023-04-12T20:15:42.704Z,54.89
2023-04-12T20:16:42.920Z,54.99
2023-04-12T20:17:42.798Z,55.65
2023-04-12T20:18:42.734Z,54.64
2023-04-12T20:19:42.783Z,55.26
2023-04-12T20:20:42.803Z,55.54
2023-04-12T20:21:42.796Z,54.93
2023-04-12T20:22:42.800Z,54.37
2023-04-12T20:23:42.859Z,54.78
2023-04-12T20:24:42.889Z,54.82
2023-04-12T20:25:42.926Z,54.62
2023-04-12T20:26:42.913Z,54.23
2023-04-12T20:27:42.971Z,54.63
2023-04-12T20:28:42.994Z,54.96
2023-04-12T20:29:43.073Z,54.92
2023-04-12T20:30:43.191Z,54.40
2023-04-12T20:31:43.151Z,53.89
2023-04-12T20:32:43.305Z,53.60
2023-04-12T20:33:43.165Z,53.44
2023-04-12T20:34:43.170Z,53.22
2023-04-12T20:35:43.144Z,53.27
2023-04-12T20:36:43.116Z,53.15
2023-04-12T20:37:43.175Z,52.98
2023-04-12T20:38:43.113Z,52.99
2023-04-12T20:39:43.106Z,53.34
2023-04-12T20:40:43.119Z,53.21
2023-04-12T20:41:43.111Z,53.29
2023-04-12T20:42:43.132Z,53.48
2023-04-12T20:43:43.143Z,53.56
2023-04-12T20:44:43.213Z,55.01
2023-04-12T20:45:43.259Z,56.30
2023-04-12T20:46:43.312Z,55.70
2023-04-12T20:47:43.330Z,55.31
2023-04-12T20:48:43.332Z,55.11
2023-04-12T20:49:43.404Z,55.85
2023-04-12T20:50:43.391Z,55.48
2023-04-12T20:51:43.410Z,55.52
2023-04-12T20:52:43.469Z,55.64
2023-04-12T20:53:43.521Z,55.26
2023-04-12T20:54:43.503Z,55.36
2023-04-12T20:55:43.553Z,55.29
2023-04-12T20:56:43.566Z,56.00
2023-04-12T20:57:43.582Z,55.39
2023-04-12T20:58:43.609Z,55.16
2023-04-12T20:59:43.572Z,54.45
2023-04-12T21:00:43.598Z,54.41
2023-04-12T21:03:03.447Z,53.87
2023-04-12T21:04:03.367Z,53.55
2023-04-12T21:05:03.327Z,53.43
2023-04-12T21:06:03.324Z,53.37
2023-04-12T21:07:03.341Z,53.23
2023-04-12T21:08:03.330Z,52.95
2023-04-12T21:09:03.272Z,52.74
2023-04-12T21:10:03.276Z,52.64
2023-04-12T21:11:03.294Z,52.37
2023-04-12T21:12:03.270Z,52.35
2023-04-12T21:13:03.273Z,52.08
2023-04-12T21:14:03.260Z,52.30
2023-04-12T21:15:03.265Z,52.17
2023-04-12T21:16:03.332Z,51.84
2023-04-12T21:17:03.254Z,52.25
2023-04-12T21:18:03.278Z,52.44
2023-04-12T21:19:03.243Z,52.43
2023-04-12T21:20:03.216Z,52.30
2023-04-12T21:21:03.250Z,52.31
2023-04-12T21:22:03.216Z,51.93
2023-04-12T21:23:04.690Z,52.10
2023-04-12T21:24:03.240Z,51.74
2023-04-12T21:25:03.188Z,51.78
2023-04-12T21:26:03.199Z,51.61
2023-04-12T21:27:03.198Z,51.48
2023-04-12T21:28:03.148Z,51.28
2023-04-12T21:29:03.158Z,51.11
2023-04-12T21:30:03.175Z,51.33
2023-04-12T21:31:03.222Z,52.12
2023-04-12T21:32:03.230Z,52.20
2023-04-12T21:33:03.200Z,53.23
2023-04-12T21:34:03.147Z,53.54
2023-04-12T21:35:03.181Z,52.82
2023-04-12T21:36:03.138Z,52.37
2023-04-12T21:37:03.115Z,52.23
2023-04-12T21:38:03.122Z,51.88
2023-04-12T21:39:03.087Z,51.82
2023-04-12T21:40:03.117Z,51.93
2023-04-12T21:41:03.094Z,51.73
2023-04-12T21:42:03.086Z,51.66
2023-04-12T21:43:03.077Z,53.21
2023-04-12T21:44:03.097Z,53.19
2023-04-12T21:45:03.081Z,53.14
2023-04-12T21:46:03.122Z,52.73
2023-04-12T21:47:03.036Z,52.44
2023-04-12T21:48:03.088Z,52.17
2023-04-12T21:49:03.014Z,52.02
2023-04-12T21:50:03.036Z,52.82
2023-04-12T21:51:03.046Z,52.45
2023-04-12T21:52:03.065Z,52.67
2023-04-12T21:53:03.024Z,52.42
2023-04-12T21:54:03.013Z,52.43
2023-04-12T21:55:03.017Z,52.18
2023-04-12T21:56:03.018Z,52.20
2023-04-12T21:57:03.019Z,52.22
2023-04-12T21:58:03.012Z,52.40
2023-04-12T21:59:05.136Z,52.51
2023-04-12T22:00:02.989Z,52.33
2023-04-12T22:01:03.089Z,52.26
2023-04-12T22:02:03.135Z,52.63
2023-04-12T22:03:03.106Z,52.58
2023-04-12T22:04:02.982Z,52.83
2023-04-12T22:05:02.953Z,53.51
2023-04-12T22:06:05.162Z,53.06
2023-04-12T22:07:03.044Z,54.00
2023-04-12T22:08:03.059Z,53.96
2023-04-12T22:09:03.058Z,54.22
2023-04-12T22:10:03.109Z,55.04
2023-04-12T22:11:03.162Z,55.58
2023-04-12T22:12:03.168Z,57.47
2023-04-12T22:13:03.209Z,58.62
2023-04-12T22:14:03.219Z,60.66
2023-04-12T22:15:03.264Z,62.11
2023-04-12T22:16:03.300Z,63.25
2023-04-12T22:17:03.430Z,64.02
2023-04-12T22:18:03.457Z,64.43
2023-04-12T22:19:03.428Z,65.51
2023-04-12T22:20:03.494Z,65.46
2023-04-12T22:21:03.526Z,66.18
2023-04-12T22:22:03.496Z,66.36
2023-04-12T22:23:03.603Z,67.32
2023-04-12T22:24:03.562Z,68.10
2023-04-12T22:25:03.631Z,67.77
2023-04-12T22:26:03.674Z,68.41
2023-04-12T22:27:03.702Z,68.31
2023-04-12T22:28:03.732Z,68.73
2023-04-12T22:29:03.745Z,68.86
2023-04-12T22:30:03.744Z,69.10
2023-04-12T22:31:03.829Z,69.73
2023-04-12T22:32:03.808Z,69.94
2023-04-12T22:33:03.856Z,69.46
2023-04-12T22:34:03.839Z,69.56
2023-04-12T22:35:08.494Z,69.95
2023-04-12T22:36:04.912Z,70.72
2023-04-12T22:37:03.892Z,70.26
2023-04-12T22:38:03.869Z,69.65
2023-04-12T22:39:03.856Z,69.96
2023-04-12T22:40:03.872Z,69.34
2023-04-12T22:41:03.882Z,69.12
2023-04-12T22:42:03.859Z,69.45
2023-04-12T22:43:03.822Z,70.23
2023-04-12T22:44:03.843Z,68.79
2023-04-12T22:45:03.794Z,68.83
2023-04-12T22:46:03.945Z,68.74
2023-04-12T22:47:03.819Z,70.02
2023-04-12T22:48:03.848Z,69.43
2023-04-12T22:49:03.816Z,68.87
2023-04-12T22:50:03.787Z,69.56
2023-04-12T22:51:03.837Z,69.44
2023-04-12T22:52:03.898Z,68.60
2023-04-12T22:53:03.868Z,69.37
2023-04-12T22:54:03.906Z,69.06
2023-04-12T22:55:05.583Z,68.59
2023-04-12T22:56:04.023Z,69.10
2023-04-12T22:57:04.026Z,69.05
2023-04-12T22:58:04.079Z,68.82
2023-04-12T22:59:04.108Z,69.34
2023-04-12T23:00:04.094Z,68.75
2023-04-12T23:01:04.152Z,67.98
2023-04-12T23:02:04.295Z,68.22
2023-04-12T23:03:04.365Z,67.95
2023-04-12T23:04:04.176Z,66.91
2023-04-12T23:05:04.217Z,67.32
2023-04-12T23:06:04.242Z,66.90
2023-04-12T23:07:04.224Z,67.05
2023-04-12T23:08:04.266Z,67.43
2023-04-12T23:09:04.315Z,66.68
2023-04-12T23:10:04.324Z,65.75
2023-04-12T23:11:04.398Z,65.34
2023-04-12T23:12:04.416Z,65.86
2023-04-12T23:13:04.443Z,65.38
2023-04-12T23:14:04.456Z,66.28
2023-04-12T23:15:04.489Z,65.51
2023-04-12T23:16:04.620Z,65.17
2023-04-12T23:17:04.597Z,65.49
2023-04-12T23:18:04.622Z,65.32
2023-04-12T23:19:04.576Z,66.21
2023-04-12T23:20:04.593Z,65.64
2023-04-12T23:21:04.672Z,66.43
2023-04-12T23:22:04.670Z,65.14
2023-04-12T23:23:04.659Z,64.49
2023-04-12T23:24:04.711Z,65.43
2023-04-12T23:25:04.736Z,65.42
2023-04-12T23:26:04.805Z,65.51
2023-04-12T23:27:04.791Z,65.54
2023-04-12T23:28:04.828Z,65.65
2023-04-12T23:29:04.886Z,66.70
2023-04-12T23:30:04.931Z,66.10
2023-04-12T23:31:05.034Z,64.92
2023-04-12T23:32:04.982Z,65.18
2023-04-12T23:33:04.996Z,65.70
2023-04-12T23:34:05.022Z,65.36
2023-04-12T23:35:05.059Z,65.60
2023-04-12T23:36:05.090Z,65.37
2023-04-12T23:37:05.128Z,65.10
2023-04-12T23:38:05.132Z,64.91
2023-04-12T23:39:05.170Z,65.89
2023-04-12T23:40:05.230Z,65.49
2023-04-12T23:41:05.274Z,65.13
2023-04-12T23:42:05.271Z,66.19
2023-04-12T23:43:05.295Z,65.59
2023-04-12T23:44:05.301Z,66.31
2023-04-12T23:45:05.352Z,65.72
2023-04-12T23:46:05.338Z,65.52
2023-04-12T23:47:05.405Z,68.35
2023-04-12T23:48:05.930Z,68.96
2023-04-12T23:49:05.389Z,68.89
2023-04-12T23:50:05.396Z,69.14
2023-04-12T23:51:05.504Z,70.41
2023-04-12T23:52:05.497Z,70.38
2023-04-12T23:53:05.480Z,70.59
2023-04-12T23:54:05.512Z,69.90
2023-04-12T23:55:05.583Z,69.83
2023-04-12T23:56:05.634Z,70.63
2023-04-12T23:57:05.634Z,70.48
2023-04-12T23:58:05.790Z,70.07
2023-04-12T23:59:05.862Z,69.65
